createdAt,value
2022-12-12T00:01:39.307Z,98997.06
2022-12-12T00:04:07.307Z,98985.75
2022-12-12T00:06:34.512Z,98997.69
2022-12-12T00:09:02.310Z,98991.41
2022-12-12T00:11:29.963Z,98988.97
2022-12-12T00:13:57.883Z,98985.88
2022-12-12T00:16:26.006Z,98974.31
2022-12-12T00:18:54.052Z,98989.97
2022-12-12T00:21:25.637Z,98990.34
2022-12-12T00:23:53.628Z,98990.19
2022-12-12T00:26:31.777Z,98993.59
2022-12-12T00:28:59.956Z,98977.69
2022-12-12T00:31:28.130Z,98984.44
2022-12-12T00:33:56.294Z,98983.00
2022-12-12T00:36:26.817Z,98989.50
2022-12-12T00:38:54.828Z,98985.75
2022-12-12T00:41:22.430Z,98995.16
2022-12-12T00:43:50.674Z,98999.34
2022-12-12T00:46:23.936Z,98993.34
2022-12-12T00:48:55.333Z,99005.75
2022-12-12T00:51:24.159Z,99003.09
2022-12-12T00:53:52.308Z,98998.84
2022-12-12T00:56:21.376Z,99011.75
2022-12-12T00:58:49.694Z,99012.13
2022-12-12T01:01:23.719Z,99009.00
2022-12-12T01:03:52.367Z,99009.22
2022-12-12T01:06:20.049Z,99005.88
2022-12-12T01:08:47.667Z,99012.16
2022-12-12T01:11:16.306Z,99009.09
2022-12-12T01:13:44.074Z,99000.56
2022-12-12T01:16:12.732Z,98991.56
2022-12-12T01:18:41.463Z,99002.25
2022-12-12T01:21:14.356Z,98994.53
2022-12-12T01:23:42.520Z,98976.97
2022-12-12T01:26:13.275Z,98989.03
2022-12-12T01:28:41.053Z,98973.97
2022-12-12T01:31:09.245Z,98988.75
2022-12-12T01:33:37.247Z,98982.00
2022-12-12T01:36:05.784Z,98969.97
2022-12-12T01:38:33.350Z,98976.97
2022-12-12T01:41:00.607Z,98975.50
2022-12-12T01:43:29.063Z,98976.00
2022-12-12T01:46:00.228Z,98962.16
2022-12-12T01:48:33.690Z,98981.53
2022-12-12T01:51:04.607Z,98970.44
2022-12-12T01:53:33.319Z,98975.72
2022-12-12T01:56:06.224Z,98972.84
2022-12-12T01:58:34.311Z,98962.25
2022-12-12T02:01:02.097Z,98958.28
2022-12-12T02:03:29.866Z,98961.44
2022-12-12T02:06:01.597Z,98950.59
2022-12-12T02:08:29.659Z,98947.47
2022-12-12T02:10:57.030Z,98931.91
2022-12-12T02:13:28.141Z,98945.53
2022-12-12T02:16:13.769Z,98937.72
2022-12-12T02:18:54.918Z,98943.50
2022-12-12T02:21:31.161Z,98936.50
2022-12-12T02:23:58.681Z,98933.25
2022-12-12T02:26:54.537Z,98937.94
2022-12-12T02:29:48.518Z,98939.38
2022-12-12T02:32:27.759Z,98926.72
2022-12-12T02:35:13.638Z,98929.94
2022-12-12T02:38:06.102Z,98930.59
2022-12-12T02:40:46.512Z,98929.13
2022-12-12T02:43:26.096Z,98931.16
2022-12-12T02:46:05.299Z,98918.44
2022-12-12T02:48:48.905Z,98926.38
2022-12-12T02:51:18.058Z,98923.25
2022-12-12T02:53:45.415Z,98926.41
2022-12-12T02:56:50.614Z,98933.38
2022-12-12T02:59:26.170Z,98917.97
2022-12-12T03:02:29.912Z,98918.34
2022-12-12T03:05:19.009Z,98900.97
2022-12-12T03:07:49.374Z,98911.94
2022-12-12T03:10:28.750Z,98923.47
2022-12-12T03:13:08.403Z,98914.22
2022-12-12T03:15:59.574Z,98919.88
2022-12-12T03:18:32.428Z,98912.41
2022-12-12T03:21:26.620Z,98907.59
2022-12-12T03:24:07.176Z,98901.31
2022-12-12T03:26:42.908Z,98906.38
2022-12-12T03:29:16.419Z,98893.88
2022-12-12T03:31:50.701Z,98903.25
2022-12-12T03:34:26.607Z,98902.16
2022-12-12T03:37:01.312Z,98907.09
2022-12-12T03:39:43.041Z,98895.56
2022-12-12T03:42:20.574Z,98902.41
2022-12-12T03:45:02.180Z,98892.31
2022-12-12T03:47:37.585Z,98892.78
2022-12-12T03:50:19.550Z,98868.59
2022-12-12T03:52:57.604Z,98884.50
2022-12-12T03:55:43.664Z,98877.63
2022-12-12T03:58:47.380Z,98885.31
2022-12-12T04:01:18.985Z,98869.88
2022-12-12T04:04:14.131Z,98890.28
2022-12-12T04:07:13.967Z,98889.31
2022-12-12T04:10:01.429Z,98895.06
2022-12-12T04:12:47.514Z,98882.78
2022-12-12T04:15:31.395Z,98879.75
2022-12-12T04:18:17.136Z,98874.63
2022-12-12T04:21:14.840Z,98871.00
2022-12-12T04:24:00.758Z,98873.53
2022-12-12T04:26:42.006Z,98869.66
2022-12-12T04:29:36.442Z,98866.91
2022-12-12T04:32:06.929Z,98862.94
2022-12-12T04:34:51.342Z,98856.31
2022-12-12T04:37:41.406Z,98854.41
2022-12-12T04:40:14.192Z,98858.00
2022-12-12T04:42:47.030Z,98859.56
2022-12-12T04:45:19.265Z,98849.72
2022-12-12T04:47:48.294Z,98845.38
2022-12-12T04:50:17.244Z,98860.31
2022-12-12T04:52:47.033Z,98841.41
2022-12-12T04:55:19.888Z,98856.69
2022-12-12T04:57:50.540Z,98842.69
2022-12-12T05:00:20.280Z,98837.28
2022-12-12T05:03:19.046Z,98839.06
2022-12-12T05:05:54.875Z,98839.09
2022-12-12T05:08:32.680Z,98845.84
2022-12-12T05:11:02.252Z,98838.25
2022-12-12T05:13:33.247Z,98836.28
2022-12-12T05:16:03.165Z,98836.75
2022-12-12T05:18:31.435Z,98837.81
2022-12-12T05:20:58.919Z,98828.13
2022-12-12T05:23:31.528Z,98839.34
2022-12-12T05:26:19.674Z,98836.13
2022-12-12T05:28:46.855Z,98837.25
2022-12-12T05:31:15.285Z,98836.63
2022-12-12T05:33:42.603Z,98846.66
2022-12-12T05:36:10.722Z,98849.19
2022-12-12T05:38:38.303Z,98839.81
2022-12-12T05:41:06.267Z,98834.16
2022-12-12T05:43:33.841Z,98833.53
2022-12-12T05:46:01.685Z,98835.19
2022-12-12T05:48:28.965Z,98831.56
2022-12-12T05:50:56.543Z,98841.38
2022-12-12T05:53:23.775Z,98824.56
2022-12-12T05:55:51.692Z,98832.63
2022-12-12T05:58:20.400Z,98831.09
2022-12-12T06:00:49.410Z,98827.16
2022-12-12T06:03:17.693Z,98815.84
2022-12-12T06:05:45.335Z,98821.88
2022-12-12T06:08:12.714Z,98830.06
2022-12-12T06:10:40.421Z,98838.50
2022-12-12T06:13:07.690Z,98840.38
2022-12-12T06:15:39.468Z,98833.03
2022-12-12T06:18:07.387Z,98834.06
2022-12-12T06:20:35.957Z,98835.66
2022-12-12T06:23:03.269Z,98848.22
2022-12-12T06:25:30.801Z,98842.41
2022-12-12T06:27:59.251Z,98845.72
2022-12-12T06:30:26.957Z,98838.50
2022-12-12T06:32:54.124Z,98844.63
2022-12-12T06:35:21.665Z,98828.84
2022-12-12T06:37:48.867Z,98828.09
2022-12-12T06:40:17.221Z,98818.72
2022-12-12T06:42:48.297Z,98820.94
2022-12-12T06:45:17.080Z,98814.78
2022-12-12T06:47:44.300Z,98808.63
2022-12-12T06:50:12.122Z,98816.19
2022-12-12T06:52:39.326Z,98818.13
2022-12-12T06:55:07.160Z,98798.28
2022-12-12T06:57:34.948Z,98804.19
2022-12-12T07:00:02.753Z,98807.34
2022-12-12T07:02:30.550Z,98800.75
2022-12-12T07:04:58.616Z,98797.66
2022-12-12T07:07:25.891Z,98784.53
2022-12-12T07:09:53.494Z,98796.06
2022-12-12T07:12:20.787Z,98812.53
2022-12-12T07:14:48.266Z,98800.28
2022-12-12T07:17:15.508Z,98801.84
2022-12-12T07:19:42.965Z,98799.25
2022-12-12T07:22:10.837Z,98798.31
2022-12-12T07:24:38.569Z,98802.97
2022-12-12T07:27:06.954Z,98805.50
2022-12-12T07:29:34.701Z,98799.25
2022-12-12T07:32:01.915Z,98805.25
2022-12-12T07:34:30.188Z,98798.78
2022-12-12T07:37:02.557Z,98790.34
2022-12-12T07:39:32.067Z,98805.28
2022-12-12T07:41:59.914Z,98785.31
2022-12-12T07:44:27.559Z,98791.44
2022-12-12T07:46:58.013Z,98791.78
2022-12-12T07:49:25.867Z,98781.69
2022-12-12T07:51:53.060Z,98781.34
2022-12-12T07:54:20.665Z,98782.44
2022-12-12T07:56:48.047Z,98782.66
2022-12-12T07:59:15.715Z,98782.44
2022-12-12T08:01:43.061Z,98783.28
2022-12-12T08:04:10.557Z,98774.59
2022-12-12T08:06:37.769Z,98780.16
2022-12-12T08:09:05.471Z,98771.47
2022-12-12T08:11:32.752Z,98771.00
2022-12-12T08:14:00.745Z,98790.50
2022-12-12T08:16:30.037Z,98790.59
2022-12-12T08:18:58.545Z,98779.38
2022-12-12T08:21:27.140Z,98788.81
2022-12-12T08:23:59.662Z,98788.28
2022-12-12T08:26:27.722Z,98794.56
2022-12-12T08:28:56.693Z,98781.09
2022-12-12T08:31:24.709Z,98785.31
2022-12-12T08:33:53.359Z,98791.41
2022-12-12T08:36:23.637Z,98788.19
2022-12-12T08:38:51.799Z,98791.31
2022-12-12T08:41:19.767Z,98799.72
2022-12-12T08:43:47.561Z,98805.25
2022-12-12T08:46:18.215Z,98795.50
2022-12-12T08:48:48.200Z,98797.31
2022-12-12T08:51:16.765Z,98806.47
2022-12-12T08:53:46.061Z,98817.31
2022-12-12T08:56:14.132Z,98805.44
2022-12-12T08:58:43.660Z,98807.44
2022-12-12T09:01:12.360Z,98814.09
2022-12-12T09:03:40.173Z,98821.66
2022-12-12T09:06:08.983Z,98819.63
2022-12-12T09:08:37.400Z,98810.59
2022-12-12T09:11:05.121Z,98805.78
2022-12-12T09:13:32.941Z,98810.94
2022-12-12T09:16:00.249Z,98814.69
2022-12-12T09:18:28.192Z,98803.16
2022-12-12T09:20:57.243Z,98809.75
2022-12-12T09:23:26.390Z,98798.81
2022-12-12T09:25:54.285Z,98787.50
2022-12-12T09:28:25.188Z,98806.25
2022-12-12T09:30:52.966Z,98811.69
2022-12-12T09:33:20.619Z,98816.47
2022-12-12T09:35:47.865Z,98811.94
2022-12-12T09:38:15.470Z,98819.50
2022-12-12T09:41:03.959Z,98831.06
2022-12-12T09:43:38.941Z,98799.41
2022-12-12T09:46:21.630Z,98805.75
2022-12-12T09:48:49.194Z,98805.31
2022-12-12T09:51:17.051Z,98810.13
2022-12-12T09:53:46.556Z,98805.88
2022-12-12T09:56:18.820Z,98808.66
2022-12-12T09:58:56.858Z,98808.78
2022-12-12T10:01:43.076Z,98804.34
2022-12-12T10:04:35.630Z,98803.88
2022-12-12T10:07:27.169Z,98810.22
2022-12-12T10:10:24.657Z,98800.25
2022-12-12T10:12:54.012Z,98796.88
2022-12-12T10:15:21.542Z,98806.25
2022-12-12T10:17:48.974Z,98809.97
2022-12-12T10:20:29.835Z,98799.53
2022-12-12T10:23:01.125Z,98797.13
2022-12-12T10:25:42.334Z,98799.16
2022-12-12T10:28:16.173Z,98802.66
2022-12-12T10:31:03.304Z,98805.03
2022-12-12T10:33:40.979Z,98786.88
2022-12-12T10:36:26.663Z,98797.56
2022-12-12T10:39:05.699Z,98794.78
2022-12-12T10:41:33.181Z,98796.63
2022-12-12T10:44:15.367Z,98789.66
2022-12-12T10:46:56.029Z,98765.94
2022-12-12T10:49:24.559Z,98760.25
2022-12-12T10:51:53.577Z,98768.59
2022-12-12T10:54:24.150Z,98768.03
2022-12-12T10:57:06.930Z,98776.59
2022-12-12T10:59:47.514Z,98771.66
2022-12-12T11:02:40.617Z,98776.69
2022-12-12T11:05:22.239Z,98757.00
2022-12-12T11:08:05.480Z,98762.84
2022-12-12T11:10:37.503Z,98767.09
2022-12-12T11:13:10.840Z,98770.53
2022-12-12T11:15:49.782Z,98766.47
2022-12-12T11:18:20.457Z,98758.50
2022-12-12T11:21:08.173Z,98777.56
2022-12-12T11:23:39.975Z,98760.56
2022-12-12T11:26:17.587Z,98749.59
2022-12-12T11:28:54.134Z,98761.41
2022-12-12T11:31:24.228Z,98749.63
2022-12-12T11:33:58.785Z,98750.16
2022-12-12T11:36:35.618Z,98748.22
2022-12-12T11:39:20.011Z,98762.66
2022-12-12T11:42:29.823Z,98767.56
2022-12-12T11:45:04.872Z,98759.03
2022-12-12T11:47:41.012Z,98777.16
2022-12-12T11:50:29.905Z,98765.53
2022-12-12T11:53:01.560Z,98768.28
2022-12-12T11:55:28.897Z,98771.28
2022-12-12T11:58:10.919Z,98778.56
2022-12-12T12:01:06.101Z,98779.78
2022-12-12T12:03:48.233Z,98780.31
2022-12-12T12:06:42.305Z,98773.13
2022-12-12T12:09:17.425Z,98774.09
2022-12-12T12:11:57.448Z,98774.09
2022-12-12T12:14:38.535Z,98782.84
2022-12-12T12:17:15.634Z,98782.13
2022-12-12T12:19:57.900Z,98770.97
2022-12-12T12:22:35.744Z,98773.38
2022-12-12T12:25:20.859Z,98773.94
2022-12-12T12:28:08.579Z,98759.63
2022-12-12T12:31:12.305Z,98769.56
2022-12-12T12:34:02.994Z,98750.63
2022-12-12T12:36:48.028Z,98754.63
2022-12-12T12:39:40.799Z,98759.88
2022-12-12T12:42:38.608Z,98757.47
2022-12-12T12:45:33.932Z,98754.56
2022-12-12T12:48:11.358Z,98754.63
2022-12-12T12:51:02.180Z,98762.63
2022-12-12T12:53:36.872Z,98766.59
2022-12-12T12:56:26.225Z,98771.06
2022-12-12T12:58:57.623Z,98778.03
2022-12-12T13:01:29.672Z,98789.47
2022-12-12T13:03:56.870Z,98788.69
2022-12-12T13:06:59.020Z,98786.31
2022-12-12T13:09:26.213Z,98781.97
2022-12-12T13:12:01.798Z,98786.25
2022-12-12T13:14:42.639Z,98796.75
2022-12-12T13:17:19.035Z,98796.84
2022-12-12T13:19:50.233Z,98795.16
2022-12-12T13:22:37.127Z,98795.41
2022-12-12T13:25:36.132Z,98789.91
2022-12-12T13:28:12.204Z,98778.81
2022-12-12T13:31:24.579Z,98781.47
2022-12-12T13:33:54.991Z,98788.94
2022-12-12T13:36:29.524Z,98789.88
2022-12-12T13:39:00.847Z,98779.41
2022-12-12T13:41:55.433Z,98787.75
2022-12-12T13:44:47.339Z,98793.09
2022-12-12T13:47:23.804Z,98787.47
2022-12-12T13:49:55.461Z,98786.47
2022-12-12T13:52:37.515Z,98790.84
2022-12-12T13:55:14.002Z,98780.97
2022-12-12T13:58:17.746Z,98790.34
2022-12-12T14:00:46.159Z,98787.72
2022-12-12T14:03:13.438Z,98794.41
2022-12-12T14:05:42.626Z,98788.72
2022-12-12T14:08:13.679Z,98795.53
2022-12-12T14:10:50.286Z,98784.31
2022-12-12T14:13:23.747Z,98796.13
2022-12-12T14:15:57.431Z,98789.13
2022-12-12T14:18:31.276Z,98793.69
2022-12-12T14:21:00.573Z,98796.72
2022-12-12T14:23:36.818Z,98809.63
2022-12-12T14:26:29.157Z,98806.00
2022-12-12T14:29:18.223Z,98788.94
2022-12-12T14:31:56.560Z,98801.75
2022-12-12T14:34:31.111Z,98787.97
2022-12-12T14:37:22.514Z,98824.28
2022-12-12T14:40:24.729Z,98806.09
2022-12-12T14:43:15.454Z,98816.63
2022-12-12T14:45:54.498Z,98822.84
2022-12-12T14:48:35.080Z,98815.25
2022-12-12T14:51:29.195Z,98825.72
2022-12-12T14:54:01.437Z,98826.44
2022-12-12T14:56:36.818Z,98809.84
2022-12-12T14:59:07.223Z,98833.66
2022-12-12T15:01:40.541Z,98823.78
2022-12-12T15:04:29.497Z,98837.50
2022-12-12T15:06:58.003Z,98837.19
2022-12-12T15:09:36.911Z,98828.38
2022-12-12T15:12:10.027Z,98833.44
2022-12-12T15:14:40.328Z,98819.47
2022-12-12T15:17:18.207Z,98831.97
2022-12-12T15:20:01.156Z,98828.59
2022-12-12T15:22:49.272Z,98816.56
2022-12-12T15:25:20.468Z,98823.41
2022-12-12T15:27:55.781Z,98824.13
2022-12-12T15:30:26.913Z,98827.38
2022-12-12T15:32:54.851Z,98819.53
2022-12-12T15:35:23.771Z,98807.63
2022-12-12T15:38:14.111Z,98813.31
2022-12-12T15:40:45.005Z,98805.69
2022-12-12T15:43:16.250Z,98818.94
2022-12-12T15:45:49.770Z,98821.44
2022-12-12T15:48:19.153Z,98817.69
2022-12-12T15:50:46.607Z,98811.91
2022-12-12T15:53:26.100Z,98824.28
2022-12-12T15:55:57.126Z,98818.84
2022-12-12T15:58:29.781Z,98825.16
2022-12-12T16:01:08.586Z,98820.16
2022-12-12T16:04:21.352Z,98836.19
2022-12-12T16:06:49.284Z,98834.63
2022-12-12T16:09:16.774Z,98818.69
2022-12-12T16:11:54.888Z,98823.34
2022-12-12T16:14:41.828Z,98805.88
2022-12-12T16:17:19.918Z,98817.16
2022-12-12T16:19:47.298Z,98825.50
2022-12-12T16:22:39.865Z,98824.13
2022-12-12T16:25:12.314Z,98824.53
2022-12-12T16:27:39.896Z,98812.91
2022-12-12T16:30:11.815Z,98818.47
2022-12-12T16:32:40.108Z,98820.53
2022-12-12T16:35:07.752Z,98809.63
2022-12-12T16:37:35.443Z,98818.28
2022-12-12T16:40:02.685Z,98816.84
2022-12-12T16:42:30.573Z,98817.16
2022-12-12T16:44:57.790Z,98807.69
2022-12-12T16:47:25.586Z,98808.41
2022-12-12T16:49:52.876Z,98816.50
2022-12-12T16:52:21.030Z,98804.03
2022-12-12T16:54:53.677Z,98804.88
2022-12-12T16:57:22.773Z,98817.47
2022-12-12T16:59:50.109Z,98808.44
2022-12-12T17:02:20.806Z,98814.25
2022-12-12T17:04:49.347Z,98814.13
2022-12-12T17:07:17.346Z,98807.72
2022-12-12T17:09:45.174Z,98817.09
2022-12-12T17:12:13.310Z,98793.19
2022-12-12T17:14:40.778Z,98800.81
2022-12-12T17:17:08.322Z,98812.81
2022-12-12T17:19:35.739Z,98798.97
2022-12-12T17:22:03.789Z,98807.69
2022-12-12T17:24:31.080Z,98808.00
2022-12-12T17:26:58.737Z,98822.69
2022-12-12T17:29:26.079Z,98829.16
2022-12-12T17:31:53.672Z,98832.75
2022-12-12T17:34:20.933Z,98821.03
2022-12-12T17:36:49.024Z,98842.50
2022-12-12T17:39:16.404Z,98839.09
2022-12-12T17:41:43.924Z,98845.00
2022-12-12T17:44:11.152Z,98846.19
2022-12-12T17:46:38.787Z,98835.00
2022-12-12T17:49:06.067Z,98840.38
2022-12-12T17:51:33.695Z,98846.41
2022-12-12T17:54:01.030Z,98834.44
2022-12-12T17:56:28.931Z,98849.34
2022-12-12T17:58:56.715Z,98845.63
2022-12-12T18:01:29.600Z,98850.44
2022-12-12T18:03:58.283Z,98854.69
2022-12-12T18:06:26.957Z,98848.47
2022-12-12T18:08:57.061Z,98845.72
2022-12-12T18:11:28.470Z,98841.56
2022-12-12T18:13:58.033Z,98854.44
2022-12-12T18:16:34.517Z,98852.31
2022-12-12T18:19:05.626Z,98847.78
2022-12-12T18:24:25.760Z,98845.41
2022-12-12T18:26:55.500Z,98847.81
2022-12-12T18:29:23.317Z,98831.03
2022-12-12T18:31:51.012Z,98848.84
2022-12-12T18:34:18.439Z,98846.34
2022-12-12T18:36:46.354Z,98845.09
2022-12-12T18:39:13.754Z,98838.34
2022-12-12T18:41:41.329Z,98836.31
2022-12-12T18:44:11.992Z,98854.06
2022-12-12T18:46:43.137Z,98843.72
2022-12-12T18:49:15.046Z,98854.59
2022-12-12T18:51:43.718Z,98842.75
2022-12-12T18:54:15.559Z,98862.19
2022-12-12T18:56:45.655Z,98847.81
2022-12-12T18:59:13.715Z,98843.41
2022-12-12T19:01:41.615Z,98858.91
2022-12-12T19:04:13.348Z,98848.47
2022-12-12T19:06:42.447Z,98852.91
2022-12-12T19:09:15.341Z,98856.72
2022-12-12T19:11:43.791Z,98864.19
2022-12-12T19:14:13.138Z,98867.66
2022-12-12T19:16:41.803Z,98856.38
2022-12-12T19:19:10.547Z,98873.59
2022-12-12T19:21:38.655Z,98869.91
2022-12-12T19:24:09.371Z,98880.56
2022-12-12T19:26:39.208Z,98854.81
2022-12-12T19:29:09.815Z,98876.03
2022-12-12T19:31:37.690Z,98873.38
2022-12-12T19:34:07.365Z,98861.34
2022-12-12T19:36:35.988Z,98872.94
2022-12-12T19:39:05.650Z,98875.50
2022-12-12T19:41:34.120Z,98884.78
2022-12-12T19:44:02.850Z,98882.03
2022-12-12T19:46:32.729Z,98886.47
2022-12-12T19:49:08.445Z,98878.75
2022-12-12T19:51:39.215Z,98887.75
2022-12-12T19:54:09.462Z,98876.03
2022-12-12T19:56:38.646Z,98884.56
2022-12-12T19:59:06.139Z,98878.03
2022-12-12T20:01:35.964Z,98894.47
2022-12-12T20:04:12.896Z,98889.94
2022-12-12T20:06:46.046Z,98892.28
2022-12-12T20:09:17.267Z,98898.06
2022-12-12T20:11:45.552Z,98881.41
2022-12-12T20:14:18.945Z,98884.34
2022-12-12T20:16:47.508Z,98882.88
2022-12-12T20:19:15.659Z,98894.91
2022-12-12T20:22:02.248Z,98897.00
2022-12-12T20:24:31.144Z,98886.38
2022-12-12T20:26:59.959Z,98912.03
2022-12-12T20:29:27.976Z,98913.59
2022-12-12T20:31:55.538Z,98904.84
2022-12-12T20:34:24.861Z,98906.09
2022-12-12T20:36:55.139Z,98916.00
2022-12-12T20:39:23.352Z,98925.94
2022-12-12T20:41:51.082Z,98931.44
2022-12-12T20:44:18.359Z,98921.50
2022-12-12T20:46:47.167Z,98927.44
2022-12-12T20:49:17.496Z,98933.44
2022-12-12T20:52:01.219Z,98938.28
2022-12-12T20:54:29.398Z,98933.63
2022-12-12T20:56:58.527Z,98934.06
2022-12-12T20:59:26.401Z,98939.84
2022-12-12T21:01:54.310Z,98945.78
2022-12-12T21:04:22.704Z,98931.31
2022-12-12T21:06:51.762Z,98929.44
2022-12-12T21:09:25.076Z,98940.72
2022-12-12T21:11:55.800Z,98952.94
2022-12-12T21:14:23.622Z,98934.38
2022-12-12T21:16:52.791Z,98937.53
2022-12-12T21:19:21.174Z,98935.63
2022-12-12T21:21:49.319Z,98930.06
2022-12-12T21:24:17.727Z,98941.56
2022-12-12T21:26:46.533Z,98932.69
2022-12-12T21:29:15.550Z,98946.00
2022-12-12T21:31:50.244Z,98953.16
2022-12-12T21:34:19.114Z,98937.97
2022-12-12T21:36:46.723Z,98955.81
2022-12-12T21:39:14.160Z,98967.28
2022-12-12T21:41:43.923Z,98973.63
2022-12-12T21:44:11.613Z,98957.78
2022-12-12T21:46:42.069Z,98966.84
2022-12-12T21:49:28.719Z,98967.56
2022-12-12T21:52:02.347Z,98971.47
2022-12-12T21:54:30.260Z,98953.56
2022-12-12T21:56:59.712Z,98971.41
2022-12-12T21:59:27.419Z,98975.75
2022-12-12T22:01:57.165Z,98965.97
2022-12-12T22:04:25.559Z,98968.16
2022-12-12T22:06:53.108Z,98978.66
2022-12-12T22:09:20.796Z,98981.38
2022-12-12T22:11:50.129Z,98979.41
2022-12-12T22:14:20.706Z,98983.47
2022-12-12T22:16:48.869Z,98975.88
2022-12-12T22:19:16.633Z,98983.84
2022-12-12T22:21:47.534Z,98978.25
2022-12-12T22:24:16.814Z,98962.84
2022-12-12T22:26:47.432Z,98964.75
2022-12-12T22:29:17.471Z,98968.22
2022-12-12T22:31:45.651Z,98965.50
2022-12-12T22:34:24.560Z,98961.19
2022-12-12T22:36:53.330Z,98956.88
2022-12-12T22:39:25.328Z,98950.06
2022-12-12T22:41:55.913Z,98953.28
2022-12-12T22:44:25.314Z,98958.44
2022-12-12T22:46:54.678Z,98955.69
2022-12-12T22:49:25.947Z,98963.03
2022-12-12T22:51:55.890Z,98951.72
2022-12-12T22:54:23.489Z,98941.78
2022-12-12T22:56:51.865Z,98942.63
2022-12-12T22:59:19.122Z,98938.13
2022-12-12T23:01:46.639Z,98947.53
2022-12-12T23:04:14.869Z,98938.13
2022-12-12T23:06:43.610Z,98945.03
2022-12-12T23:09:20.327Z,98961.16
2022-12-12T23:11:50.009Z,98961.72
2022-12-12T23:14:19.972Z,98968.31
2022-12-12T23:16:47.914Z,98955.13
2022-12-12T23:19:18.665Z,98964.63
2022-12-12T23:21:46.876Z,98965.22
2022-12-12T23:24:14.682Z,98968.56
2022-12-12T23:26:42.661Z,98959.03
2022-12-12T23:29:14.185Z,98965.31
2022-12-12T23:31:41.854Z,98965.56
2022-12-12T23:34:24.926Z,98981.28
2022-12-12T23:36:54.285Z,98987.31
2022-12-12T23:39:22.542Z,98959.84
2022-12-12T23:41:50.115Z,98974.50
2022-12-12T23:44:20.095Z,98969.34
2022-12-12T23:46:48.297Z,98974.69
2022-12-12T23:49:24.091Z,98979.78
2022-12-12T23:51:57.275Z,98976.97
2022-12-12T23:54:35.034Z,98988.41
2022-12-12T23:57:03.406Z,98976.88
2022-12-12T23:59:30.870Z,98979.22
